createdAt,value
2023-01-17T00:01:10.057Z,3.89
2023-01-17T00:03:54.660Z,3.90
2023-01-17T00:06:43.147Z,3.93
2023-01-17T00:09:32.391Z,3.91
2023-01-17T00:12:03.199Z,3.88
2023-01-17T00:14:35.029Z,3.87
2023-01-17T00:17:07.698Z,3.87
2023-01-17T00:19:56.365Z,3.83
2023-01-17T00:22:45.925Z,3.77
2023-01-17T00:25:35.086Z,3.76
2023-01-17T00:28:05.628Z,3.76
2023-01-17T00:30:35.409Z,3.80
2023-01-17T00:33:05.112Z,3.84
2023-01-17T00:35:35.689Z,3.87
2023-01-17T00:38:07.184Z,3.88
2023-01-17T00:40:40.123Z,3.87
2023-01-17T00:43:30.021Z,3.84
2023-01-17T00:46:18.287Z,3.77
2023-01-17T00:49:06.618Z,3.72
2023-01-17T00:51:55.719Z,3.74
2023-01-17T00:54:44.218Z,3.71
2023-01-17T00:57:32.512Z,3.69
2023-01-17T01:00:20.942Z,3.66
2023-01-17T01:03:09.003Z,3.67
2023-01-17T01:05:57.469Z,3.65
2023-01-17T01:08:47.678Z,3.66
2023-01-17T01:11:37.478Z,3.67
2023-01-17T01:14:27.768Z,3.67
2023-01-17T01:17:16.070Z,3.66
2023-01-17T01:20:04.561Z,3.62
2023-01-17T01:22:53.484Z,3.59
2023-01-17T01:25:41.806Z,3.60
2023-01-17T01:28:32.024Z,3.63
2023-01-17T01:31:20.630Z,3.67
2023-01-17T01:33:53.030Z,3.69
2023-01-17T01:36:23.509Z,3.71
2023-01-17T01:38:54.249Z,3.74
2023-01-17T01:41:23.676Z,3.75
2023-01-17T01:43:55.744Z,3.74
2023-01-17T01:46:29.535Z,3.74
2023-01-17T01:49:01.999Z,3.75
2023-01-17T01:51:36.903Z,3.77
2023-01-17T01:54:10.149Z,3.79
2023-01-17T01:56:41.428Z,3.81
2023-01-17T01:59:10.902Z,3.81
2023-01-17T02:01:42.466Z,3.81
2023-01-17T02:04:13.441Z,3.81
2023-01-17T02:06:44.518Z,3.79
2023-01-17T02:09:17.047Z,3.76
2023-01-17T02:11:48.502Z,3.73
2023-01-17T02:14:19.942Z,3.72
2023-01-17T02:17:00.097Z,3.73
2023-01-17T02:19:46.938Z,3.77
2023-01-17T02:22:43.891Z,3.81
2023-01-17T02:25:35.284Z,3.84
2023-01-17T02:28:17.688Z,3.84
2023-01-17T02:30:50.126Z,3.85
2023-01-17T02:33:30.222Z,3.84
2023-01-17T02:36:06.233Z,3.82
2023-01-17T02:38:43.521Z,3.79
2023-01-17T02:41:19.372Z,3.78
2023-01-17T02:43:51.301Z,3.74
2023-01-17T02:46:21.700Z,3.74
2023-01-17T02:48:53.539Z,3.73
2023-01-17T02:51:43.934Z,3.75
2023-01-17T02:54:32.890Z,3.76
2023-01-17T02:57:14.962Z,3.73
2023-01-17T02:59:50.667Z,3.66
2023-01-17T03:02:26.264Z,3.61
2023-01-17T03:05:03.778Z,3.58
2023-01-17T03:07:35.069Z,3.54
2023-01-17T03:10:07.484Z,3.53
2023-01-17T03:12:39.947Z,3.53
2023-01-17T03:15:13.835Z,3.49
2023-01-17T03:17:47.473Z,3.47
2023-01-17T03:20:18.960Z,3.46
2023-01-17T03:22:49.299Z,3.43
2023-01-17T03:25:20.109Z,3.39
2023-01-17T03:27:50.516Z,3.37
2023-01-17T03:30:22.781Z,3.36
2023-01-17T03:32:53.583Z,3.36
2023-01-17T03:35:24.534Z,3.34
2023-01-17T03:37:55.216Z,3.35
2023-01-17T03:40:25.777Z,3.34
2023-01-17T03:42:56.516Z,3.30
2023-01-17T03:45:26.882Z,3.27
2023-01-17T03:47:57.572Z,3.25
2023-01-17T03:50:29.846Z,3.21
2023-01-17T03:53:02.493Z,3.18
2023-01-17T03:55:32.929Z,3.13
2023-01-17T03:58:03.545Z,3.10
2023-01-17T04:00:34.429Z,3.11
2023-01-17T04:03:06.497Z,3.09
2023-01-17T04:05:37.781Z,3.05
2023-01-17T04:08:10.402Z,3.04
2023-01-17T04:10:44.528Z,3.01
2023-01-17T04:13:16.897Z,3.01
2023-01-17T04:15:49.980Z,2.96
2023-01-17T04:18:23.114Z,2.86
2023-01-17T04:20:53.769Z,2.75
2023-01-17T04:23:24.275Z,2.70
2023-01-17T04:25:54.723Z,2.69
2023-01-17T04:28:26.102Z,2.68
2023-01-17T04:30:59.821Z,2.66
2023-01-17T04:33:30.356Z,2.62
2023-01-17T04:36:00.870Z,2.62
2023-01-17T04:38:32.046Z,2.65
2023-01-17T04:41:02.842Z,2.68
2023-01-17T04:43:33.405Z,2.77
2023-01-17T04:46:04.772Z,2.92
2023-01-17T04:48:35.507Z,3.07
2023-01-17T04:51:07.249Z,3.24
2023-01-17T04:53:37.684Z,3.37
2023-01-17T04:56:08.678Z,3.43
2023-01-17T04:58:37.756Z,3.53
2023-01-17T05:01:09.813Z,3.59
2023-01-17T05:03:40.430Z,3.68
2023-01-17T05:06:11.279Z,3.77
2023-01-17T05:08:41.826Z,3.91
2023-01-17T05:11:12.333Z,4.06
2023-01-17T05:13:42.696Z,4.21
2023-01-17T05:16:13.332Z,4.34
2023-01-17T05:18:43.800Z,4.46
2023-01-17T05:21:14.414Z,4.58
2023-01-17T05:23:45.478Z,4.64
2023-01-17T05:26:17.370Z,4.72
2023-01-17T05:28:49.081Z,4.82
2023-01-17T05:31:20.153Z,4.94
2023-01-17T05:33:50.916Z,5.06
2023-01-17T05:36:21.332Z,5.19
2023-01-17T05:38:51.787Z,5.30
2023-01-17T05:41:23.089Z,5.42
2023-01-17T05:43:54.071Z,5.54
2023-01-17T05:46:24.930Z,5.68
2023-01-17T05:48:54.112Z,5.82
2023-01-17T05:51:24.876Z,5.90
2023-01-17T05:53:56.120Z,6.01
2023-01-17T05:56:28.171Z,6.12
2023-01-17T05:58:59.122Z,6.22
2023-01-17T06:01:30.212Z,6.34
2023-01-17T06:04:01.531Z,6.46
2023-01-17T06:06:32.238Z,6.60
2023-01-17T06:09:02.878Z,6.72
2023-01-17T06:11:33.521Z,6.76
2023-01-17T06:14:04.701Z,6.83
2023-01-17T06:16:35.959Z,6.95
2023-01-17T06:19:06.702Z,7.07
2023-01-17T06:21:37.529Z,7.19
2023-01-17T06:24:08.879Z,7.31
2023-01-17T06:26:39.508Z,7.43
2023-01-17T06:29:10.939Z,7.57
2023-01-17T06:31:42.123Z,7.69
2023-01-17T06:34:12.971Z,7.80
2023-01-17T06:36:43.612Z,7.92
2023-01-17T06:39:15.230Z,8.04
2023-01-17T06:41:45.918Z,8.15
2023-01-17T06:44:16.401Z,8.21
2023-01-17T06:46:47.427Z,8.29
2023-01-17T06:49:18.087Z,8.40
2023-01-17T06:51:48.482Z,9.01
2023-01-17T06:54:20.495Z,10.86
2023-01-17T06:56:51.286Z,12.77
2023-01-17T06:59:22.069Z,14.54
2023-01-17T07:01:52.768Z,16.12
2023-01-17T07:04:23.212Z,17.48
2023-01-17T07:06:52.406Z,18.63
2023-01-17T07:09:22.844Z,19.69
2023-01-17T07:11:59.305Z,20.65
2023-01-17T07:14:29.872Z,21.63
2023-01-17T07:17:00.457Z,22.40
2023-01-17T07:19:31.077Z,23.05
2023-01-17T07:22:01.996Z,23.62
2023-01-17T07:24:32.825Z,24.27
2023-01-17T07:27:03.209Z,24.79
2023-01-17T07:29:34.201Z,25.22
2023-01-17T07:32:04.900Z,25.89
2023-01-17T07:34:35.435Z,26.54
2023-01-17T07:37:06.405Z,26.70
2023-01-17T07:39:38.015Z,26.90
2023-01-17T07:42:09.019Z,27.26
2023-01-17T07:44:41.390Z,27.61
2023-01-17T07:47:15.447Z,28.02
2023-01-17T07:49:48.590Z,28.30
2023-01-17T07:52:19.593Z,27.56
2023-01-17T07:54:49.909Z,26.19
2023-01-17T07:57:21.764Z,24.56
2023-01-17T07:59:52.951Z,23.08
2023-01-17T08:02:31.516Z,21.89
2023-01-17T08:05:03.235Z,20.86
2023-01-17T08:07:33.965Z,20.01
2023-01-17T08:10:06.481Z,19.16
2023-01-17T08:12:38.247Z,18.38
2023-01-17T08:15:11.618Z,17.74
2023-01-17T08:17:44.077Z,17.13
2023-01-17T08:20:17.801Z,16.56
2023-01-17T08:22:50.304Z,16.18
2023-01-17T08:25:22.234Z,15.72
2023-01-17T08:27:56.930Z,15.09
2023-01-17T08:30:28.734Z,14.51
2023-01-17T08:32:59.587Z,14.13
2023-01-17T08:35:34.340Z,13.83
2023-01-17T08:38:06.632Z,13.62
2023-01-17T08:40:37.303Z,13.48
2023-01-17T08:43:07.652Z,13.36
2023-01-17T08:45:43.684Z,13.18
2023-01-17T08:48:15.020Z,13.01
2023-01-17T08:50:46.183Z,12.77
2023-01-17T08:53:18.254Z,12.66
2023-01-17T08:55:49.607Z,12.58
2023-01-17T08:58:20.166Z,12.49
2023-01-17T09:00:50.976Z,12.36
2023-01-17T09:03:21.665Z,12.31
2023-01-17T09:05:52.465Z,12.27
2023-01-17T09:08:25.647Z,12.18
2023-01-17T09:10:57.031Z,12.14
2023-01-17T09:13:31.094Z,12.12
2023-01-17T09:16:05.073Z,12.10
2023-01-17T09:18:36.280Z,12.04
2023-01-17T09:21:14.535Z,12.02
2023-01-17T09:23:45.594Z,12.02
2023-01-17T09:26:21.757Z,11.99
2023-01-17T09:28:55.380Z,11.96
2023-01-17T09:31:27.347Z,11.95
2023-01-17T09:33:58.575Z,11.95
2023-01-17T09:36:34.091Z,11.95
2023-01-17T09:39:08.453Z,11.95
2023-01-17T09:41:48.057Z,11.92
2023-01-17T09:44:26.638Z,11.83
2023-01-17T09:46:59.603Z,11.64
2023-01-17T09:49:38.602Z,11.44
2023-01-17T09:52:13.312Z,11.28
2023-01-17T09:54:44.399Z,11.23
2023-01-17T09:57:23.431Z,11.18
2023-01-17T10:00:03.528Z,11.19
2023-01-17T10:02:47.226Z,11.20
2023-01-17T10:05:29.595Z,11.24
2023-01-17T10:08:15.373Z,11.31
2023-01-17T10:10:59.147Z,11.35
2023-01-17T10:13:42.276Z,11.42
2023-01-17T10:16:24.782Z,11.45
2023-01-17T10:19:11.718Z,11.41
2023-01-17T10:21:55.794Z,11.29
2023-01-17T10:24:41.215Z,11.28
2023-01-17T10:27:18.255Z,11.27
2023-01-17T10:29:49.723Z,11.21
2023-01-17T10:32:22.497Z,11.17
2023-01-17T10:34:53.894Z,11.14
2023-01-17T10:37:39.996Z,11.16
2023-01-17T10:40:18.804Z,11.15
2023-01-17T10:42:54.501Z,10.99
2023-01-17T10:45:28.963Z,10.87
2023-01-17T10:48:05.752Z,10.88
2023-01-17T10:50:37.146Z,10.92
2023-01-17T10:53:12.026Z,10.90
2023-01-17T10:55:49.883Z,10.93
2023-01-17T10:58:20.142Z,10.99
2023-01-17T11:00:54.160Z,11.05
2023-01-17T11:03:29.355Z,10.99
2023-01-17T11:06:20.687Z,10.97
2023-01-17T11:08:58.543Z,10.98
2023-01-17T11:11:34.968Z,10.99
2023-01-17T11:14:09.302Z,11.01
2023-01-17T11:16:40.723Z,10.98
2023-01-17T11:19:18.971Z,10.90
2023-01-17T11:21:54.268Z,10.75
2023-01-17T11:24:29.577Z,10.69
2023-01-17T11:27:03.229Z,10.68
2023-01-17T11:29:38.047Z,10.63
2023-01-17T11:32:30.932Z,10.65
2023-01-17T11:35:16.744Z,10.68
2023-01-17T11:38:14.410Z,10.64
2023-01-17T11:40:47.956Z,10.63
2023-01-17T11:43:23.210Z,10.62
2023-01-17T11:46:18.326Z,10.56
2023-01-17T11:48:56.189Z,10.47
2023-01-17T11:51:32.923Z,10.47
2023-01-17T11:54:22.950Z,10.44
2023-01-17T11:56:58.832Z,10.34
2023-01-17T11:59:34.905Z,10.28
2023-01-17T12:02:31.438Z,10.24
2023-01-17T12:05:15.084Z,10.24
2023-01-17T12:07:49.776Z,10.24
2023-01-17T12:10:24.597Z,10.28
2023-01-17T12:13:30.701Z,10.25
2023-01-17T12:16:26.589Z,10.15
2023-01-17T12:19:11.413Z,10.04
2023-01-17T12:21:46.302Z,9.98
2023-01-17T12:24:35.594Z,9.84
2023-01-17T12:27:12.576Z,9.68
2023-01-17T12:29:48.713Z,9.57
2023-01-17T12:32:42.894Z,9.55
2023-01-17T12:35:18.344Z,9.58
2023-01-17T12:38:03.694Z,9.62
2023-01-17T12:40:39.037Z,9.64
2023-01-17T12:43:14.796Z,9.66
2023-01-17T12:45:46.562Z,9.68
2023-01-17T12:48:19.666Z,9.70
2023-01-17T12:50:53.478Z,9.70
2023-01-17T12:53:30.200Z,9.69
2023-01-17T12:56:02.514Z,9.69
2023-01-17T12:58:49.742Z,9.63
2023-01-17T13:01:24.842Z,9.62
2023-01-17T13:04:04.641Z,9.63
2023-01-17T13:06:49.093Z,9.61
2023-01-17T13:09:21.616Z,9.59
2023-01-17T13:11:54.538Z,9.58
2023-01-17T13:14:25.131Z,9.54
2023-01-17T13:16:58.727Z,9.45
2023-01-17T13:19:35.279Z,9.35
2023-01-17T13:22:07.944Z,9.29
2023-01-17T13:24:44.398Z,9.20
2023-01-17T13:27:31.628Z,9.12
2023-01-17T13:30:24.436Z,9.07
2023-01-17T13:33:09.903Z,9.01
2023-01-17T13:35:43.670Z,8.99
2023-01-17T13:38:25.615Z,8.96
2023-01-17T13:40:58.166Z,8.92
2023-01-17T13:43:30.763Z,8.89
2023-01-17T13:46:03.905Z,8.86
2023-01-17T13:48:37.897Z,8.82
2023-01-17T13:51:08.688Z,8.77
2023-01-17T13:53:57.610Z,8.71
2023-01-17T13:56:31.009Z,8.63
2023-01-17T13:59:06.684Z,8.58
2023-01-17T14:01:53.911Z,8.56
2023-01-17T14:04:26.325Z,8.53
2023-01-17T14:07:00.834Z,8.51
2023-01-17T14:09:39.679Z,8.48
2023-01-17T14:12:27.827Z,8.41
2023-01-17T14:15:00.400Z,8.34
2023-01-17T14:17:50.633Z,8.29
2023-01-17T14:21:03.020Z,8.22
2023-01-17T14:23:56.522Z,8.08
2023-01-17T14:26:47.737Z,8.00
2023-01-17T14:29:49.605Z,7.95
2023-01-17T14:32:21.900Z,7.89
2023-01-17T14:34:53.746Z,7.83
2023-01-17T14:37:41.339Z,7.79
2023-01-17T14:40:21.657Z,7.75
2023-01-17T14:43:00.009Z,7.74
2023-01-17T14:45:31.787Z,7.71
2023-01-17T14:48:05.622Z,7.70
2023-01-17T14:50:39.359Z,7.71
2023-01-17T14:53:19.991Z,7.70
2023-01-17T14:55:58.927Z,7.68
2023-01-17T14:58:31.332Z,7.67
2023-01-17T15:01:04.228Z,7.64
2023-01-17T15:03:36.479Z,7.61
2023-01-17T15:06:13.293Z,7.56
2023-01-17T15:08:44.112Z,7.51
2023-01-17T15:11:21.323Z,7.47
2023-01-17T15:13:54.773Z,7.43
2023-01-17T15:16:27.105Z,7.38
2023-01-17T15:18:58.434Z,7.35
2023-01-17T15:21:30.657Z,7.33
2023-01-17T15:24:04.617Z,7.31
2023-01-17T15:26:37.593Z,7.29
2023-01-17T15:29:09.306Z,7.28
2023-01-17T15:31:44.214Z,7.26
2023-01-17T15:34:25.557Z,7.23
2023-01-17T15:36:57.759Z,7.19
2023-01-17T15:39:30.777Z,7.16
2023-01-17T15:42:07.070Z,7.15
2023-01-17T15:44:48.147Z,7.14
2023-01-17T15:47:33.140Z,7.07
2023-01-17T15:50:25.529Z,6.99
2023-01-17T15:52:57.815Z,6.90
2023-01-17T15:55:33.150Z,6.86
2023-01-17T15:58:04.651Z,6.83
2023-01-17T16:00:41.830Z,6.80
2023-01-17T16:03:25.025Z,6.81
2023-01-17T16:05:57.490Z,6.82
2023-01-17T16:08:40.059Z,6.84
2023-01-17T16:11:13.277Z,6.86
2023-01-17T16:13:48.174Z,6.83
2023-01-17T16:16:24.166Z,6.77
2023-01-17T16:19:01.701Z,6.75
2023-01-17T16:21:31.607Z,6.75
2023-01-17T16:24:03.347Z,6.72
2023-01-17T16:26:34.379Z,6.73
2023-01-17T16:29:04.998Z,6.72
2023-01-17T16:31:35.913Z,6.70
2023-01-17T16:34:12.238Z,6.69
2023-01-17T16:36:42.512Z,6.68
2023-01-17T16:39:15.850Z,6.66
2023-01-17T16:41:46.590Z,6.65
2023-01-17T16:44:17.246Z,6.62
2023-01-17T16:46:47.850Z,6.60
2023-01-17T16:49:18.555Z,6.59
2023-01-17T16:51:50.062Z,6.57
2023-01-17T16:54:20.677Z,6.55
2023-01-17T16:56:51.003Z,6.51
2023-01-17T16:59:22.591Z,6.48
2023-01-17T17:01:54.949Z,6.46
2023-01-17T17:04:25.333Z,6.43
2023-01-17T17:06:55.783Z,6.40
2023-01-17T17:09:27.347Z,6.35
2023-01-17T17:11:58.414Z,6.30
2023-01-17T17:14:29.594Z,6.24
2023-01-17T17:17:05.776Z,6.16
2023-01-17T17:19:36.520Z,6.09
2023-01-17T17:22:07.109Z,6.03
2023-01-17T17:24:38.994Z,6.01
2023-01-17T17:27:10.047Z,6.00
2023-01-17T17:29:40.985Z,6.00
2023-01-17T17:32:11.385Z,6.00
2023-01-17T17:34:42.544Z,5.97
2023-01-17T17:37:13.601Z,5.94
2023-01-17T17:39:46.370Z,5.93
2023-01-17T17:42:19.789Z,5.93
2023-01-17T17:44:50.656Z,5.93
2023-01-17T17:47:23.850Z,5.93
2023-01-17T17:49:58.115Z,5.94
2023-01-17T17:52:30.459Z,5.92
2023-01-17T17:55:01.296Z,5.89
2023-01-17T17:57:31.742Z,5.88
2023-01-17T18:00:04.052Z,5.87
2023-01-17T18:02:34.642Z,5.87
2023-01-17T18:05:06.180Z,5.87
2023-01-17T18:07:36.839Z,5.85
2023-01-17T18:10:10.795Z,5.81
2023-01-17T18:12:41.442Z,5.78
2023-01-17T18:15:12.100Z,5.75
2023-01-17T18:17:43.124Z,5.72
2023-01-17T18:20:15.416Z,5.70
2023-01-17T18:22:46.408Z,5.68
2023-01-17T18:25:17.451Z,5.64
2023-01-17T18:27:48.218Z,5.63
2023-01-17T18:30:19.463Z,5.65
2023-01-17T18:32:51.411Z,5.65
2023-01-17T18:35:21.991Z,5.64
2023-01-17T18:37:52.734Z,5.66
2023-01-17T18:40:22.661Z,5.65
2023-01-17T18:42:53.926Z,5.60
2023-01-17T18:45:25.053Z,5.54
2023-01-17T18:47:56.207Z,5.51
2023-01-17T18:50:26.790Z,5.49
2023-01-17T18:52:57.235Z,5.46
2023-01-17T18:55:27.915Z,5.41
2023-01-17T18:57:58.247Z,5.37
2023-01-17T19:00:28.827Z,5.34
2023-01-17T19:02:59.328Z,5.30
2023-01-17T19:05:29.795Z,5.28
2023-01-17T19:08:00.322Z,5.27
2023-01-17T19:10:30.943Z,5.23
2023-01-17T19:13:02.428Z,5.20
2023-01-17T19:15:33.354Z,5.17
2023-01-17T19:18:02.450Z,5.17
2023-01-17T19:20:33.598Z,5.16
2023-01-17T19:23:04.779Z,5.15
2023-01-17T19:25:37.777Z,5.14
2023-01-17T19:28:08.941Z,5.15
2023-01-17T19:30:40.540Z,5.15
2023-01-17T19:33:10.860Z,5.14
2023-01-17T19:35:41.651Z,5.13
2023-01-17T19:38:12.902Z,5.11
2023-01-17T19:40:48.068Z,5.08
2023-01-17T19:43:20.582Z,5.04
2023-01-17T19:46:01.223Z,5.02
2023-01-17T19:48:31.689Z,5.00
2023-01-17T19:51:07.481Z,4.93
2023-01-17T19:53:38.338Z,4.87
2023-01-17T19:56:11.535Z,4.84
2023-01-17T19:58:42.992Z,4.83
2023-01-17T20:01:15.373Z,4.83
2023-01-17T20:03:47.045Z,4.79
2023-01-17T20:06:20.241Z,4.77
2023-01-17T20:08:50.656Z,4.76
2023-01-17T20:11:23.107Z,4.78
2023-01-17T20:13:55.769Z,4.80
2023-01-17T20:16:28.009Z,4.81
2023-01-17T20:18:59.363Z,4.81
2023-01-17T20:21:34.252Z,4.79
2023-01-17T20:24:06.877Z,4.74
2023-01-17T20:26:37.517Z,4.73
2023-01-17T20:29:11.586Z,4.72
2023-01-17T20:31:42.943Z,4.70
2023-01-17T20:34:14.271Z,4.67
2023-01-17T20:36:46.685Z,4.63
2023-01-17T20:39:17.868Z,4.60
2023-01-17T20:41:51.092Z,4.57
2023-01-17T20:44:22.895Z,4.55
2023-01-17T20:46:53.277Z,4.55
2023-01-17T20:49:24.234Z,4.56
2023-01-17T20:51:53.604Z,4.54
2023-01-17T20:54:25.030Z,4.49
2023-01-17T20:56:58.677Z,4.48
2023-01-17T20:59:29.921Z,4.47
2023-01-17T21:02:01.040Z,4.46
2023-01-17T21:04:32.334Z,4.42
2023-01-17T21:07:03.572Z,4.41
2023-01-17T21:09:34.038Z,4.39
2023-01-17T21:12:06.013Z,4.39
2023-01-17T21:14:41.909Z,4.39
2023-01-17T21:17:16.242Z,4.40
2023-01-17T21:19:48.713Z,4.40
2023-01-17T21:22:20.411Z,4.39
2023-01-17T21:24:54.054Z,4.38
2023-01-17T21:27:24.521Z,4.37
2023-01-17T21:29:57.139Z,4.35
2023-01-17T21:32:29.392Z,4.33
2023-01-17T21:35:01.307Z,4.33
2023-01-17T21:37:33.310Z,4.31
2023-01-17T21:40:07.678Z,4.27
2023-01-17T21:42:38.433Z,4.23
2023-01-17T21:45:10.905Z,4.21
2023-01-17T21:47:44.615Z,4.23
2023-01-17T21:50:33.032Z,4.30
2023-01-17T21:53:05.650Z,4.37
2023-01-17T21:55:53.613Z,4.40
2023-01-17T21:58:43.282Z,4.36
2023-01-17T22:01:17.624Z,4.33
2023-01-17T22:03:51.423Z,4.36
2023-01-17T22:06:24.095Z,4.35
2023-01-17T22:08:55.115Z,4.34
2023-01-17T22:11:24.649Z,4.37
2023-01-17T22:13:58.071Z,4.41
2023-01-17T22:16:35.235Z,4.46
2023-01-17T22:19:06.220Z,4.47
2023-01-17T22:21:49.613Z,4.44
2023-01-17T22:24:23.428Z,4.41
2023-01-17T22:26:56.947Z,4.36
2023-01-17T22:29:27.404Z,4.33
2023-01-17T22:31:58.002Z,4.27
2023-01-17T22:34:29.339Z,4.21
2023-01-17T22:37:00.709Z,4.15
2023-01-17T22:39:32.115Z,4.11
2023-01-17T22:42:02.954Z,4.07
2023-01-17T22:44:33.716Z,4.02
2023-01-17T22:47:05.487Z,3.96
2023-01-17T22:49:40.781Z,3.92
2023-01-17T22:52:14.512Z,3.84
2023-01-17T22:54:45.267Z,3.77
2023-01-17T22:57:16.136Z,3.73
2023-01-17T22:59:46.668Z,3.72
2023-01-17T23:02:18.235Z,3.74
2023-01-17T23:04:49.479Z,3.77
2023-01-17T23:07:20.422Z,3.80
2023-01-17T23:09:51.058Z,3.82
2023-01-17T23:12:21.554Z,3.82
2023-01-17T23:15:09.597Z,3.81
2023-01-17T23:17:58.224Z,3.79
2023-01-17T23:20:27.534Z,3.79
2023-01-17T23:22:58.571Z,3.75
2023-01-17T23:25:30.102Z,3.73
2023-01-17T23:28:11.385Z,3.72
2023-01-17T23:30:42.790Z,3.65
2023-01-17T23:33:14.945Z,3.60
2023-01-17T23:35:46.804Z,3.54
2023-01-17T23:38:28.594Z,3.49
2023-01-17T23:41:21.929Z,3.46
2023-01-17T23:43:53.621Z,3.45
2023-01-17T23:46:25.458Z,3.43
2023-01-17T23:48:56.039Z,3.44
2023-01-17T23:51:26.493Z,3.49
2023-01-17T23:54:05.086Z,3.53
2023-01-17T23:56:36.197Z,3.58
2023-01-17T23:59:08.055Z,3.61
